Time;durP1;ratioP1;P1;durP2;ratioP2;P2;SDS_P1;SDS_P2;PMS_P1;PMS_P2;Temp;Humidity;BMP_temperature;BMP_pressure;BME280_temperature;BME280_humidity;BME280_pressure;Samples;Min_cycle;Max_cycle;Signal;HPM_P1;HPM_P2
2022/08/31 00:07:47;;;;;;;5.83;5.43;;;23.30;82.40;;;;;;10397800;28;20229;-80
2022/08/31 00:12:49;;;;;;;5.70;5.20;;;23.30;80.90;;;;;;10402366;28;20252;-80
2022/08/31 00:17:55;;;;;;;6.97;5.90;;;23.20;80.10;;;;;;10394352;28;20218;-80
2022/08/31 00:22:57;;;;;;;5.93;5.50;;;23.20;81.90;;;;;;10400054;28;20210;-80
2022/08/31 00:27:59;;;;;;;8.30;5.60;;;23.20;84.40;;;;;;10403893;28;20249;-81
2022/08/31 00:33:03;;;;;;;6.70;6.10;;;23.10;86.20;;;;;;10375224;28;20210;-82
2022/08/31 00:38:06;;;;;;;7.27;6.67;;;23.10;88.40;;;;;;10394324;28;20332;-83
2022/08/31 00:43:08;;;;;;;8.53;6.60;;;22.90;90.20;;;;;;10387145;28;20220;-79
2022/08/31 00:48:11;;;;;;;6.83;6.30;;;22.70;90.80;;;;;;10404236;28;20214;-82
2022/08/31 00:53:13;;;;;;;7.10;6.50;;;22.60;90.90;;;;;;10386687;28;20210;-83
2022/08/31 00:58:16;;;;;;;7.43;6.73;;;22.50;90.50;;;;;;10399585;28;20306;-83
2022/08/31 01:03:21;;;;;;;18.10;16.87;;;22.50;90.50;;;;;;10390236;28;20505;-82
2022/08/31 01:08:24;;;;;;;20.50;18.50;;;22.30;97.10;;;;;;10359474;28;20591;-83
2022/08/31 01:13:26;;;;;;;19.10;17.20;;;21.80;99.90;;;;;;10419648;28;20219;-82
2022/08/31 01:18:31;;;;;;;19.57;17.97;;;21.20;99.90;;;;;;10365309;28;20226;-82
2022/08/31 01:23:38;;;;;;;21.87;19.67;;;20.80;99.90;;;;;;10406690;28;20205;-80
2022/08/31 01:28:41;;;;;;;20.60;18.80;;;20.50;99.90;;;;;;10401260;28;20832;-82
2022/08/31 01:33:43;;;;;;;22.13;20.23;;;20.30;99.90;;;;;;10371120;28;20222;-80
2022/08/31 01:38:47;;;;;;;20.27;18.87;;;20.10;99.90;;;;;;10380569;28;20218;-80
2022/08/31 01:43:53;;;;;;;19.73;18.33;;;20.00;99.90;;;;;;10398164;28;20587;-79
2022/08/31 01:48:55;;;;;;;21.60;19.90;;;19.80;99.90;;;;;;10386947;28;20219;-78
2022/08/31 01:53:58;;;;;;;22.50;20.70;;;19.60;99.90;;;;;;10381922;28;20222;-79
2022/08/31 01:59:01;;;;;;;21.40;19.67;;;19.50;99.90;;;;;;10384357;28;20570;-79
2022/08/31 02:04:24;;;;;;;22.90;21.10;;;19.30;99.90;;;;;;10392345;28;20263;-79
2022/08/31 02:09:31;;;;;;;22.40;20.60;;;19.30;99.90;;;;;;10424309;23;20230;-81
2022/08/31 02:14:34;;;;;;;22.30;20.60;;;19.30;99.90;;;;;;10435829;28;20228;-81
2022/08/31 02:19:36;;;;;;;22.97;21.17;;;19.30;99.90;;;;;;10409371;28;20213;-81
2022/08/31 02:24:40;;;;;;;22.50;20.80;;;19.20;99.90;;;;;;10418220;28;20198;-81
2022/08/31 02:29:42;;;;;;;22.70;21.10;;;19.20;99.90;;;;;;10424728;28;20354;-81
2022/08/31 02:34:44;;;;;;;22.30;20.57;;;19.30;99.90;;;;;;10411894;28;20578;-81
2022/08/31 02:39:48;;;;;;;23.30;21.40;;;19.30;99.90;;;;;;10397134;28;20213;-81
2022/08/31 02:44:50;;;;;;;23.83;21.73;;;19.30;99.90;;;;;;10415420;28;20197;-81
2022/08/31 02:49:53;;;;;;;24.00;22.00;;;19.30;99.90;;;;;;10401265;28;20276;-81
2022/08/31 02:54:56;;;;;;;22.77;21.27;;;19.30;99.90;;;;;;10413586;28;20260;-81
2022/08/31 02:59:58;;;;;;;23.23;21.50;;;19.30;99.90;;;;;;10423201;28;20224;-81
2022/08/31 03:05:06;;;;;;;23.10;21.50;;;19.30;99.90;;;;;;10413116;28;20198;-80
2022/08/31 03:10:14;;;;;;;19.43;17.70;;;19.30;99.90;;;;;;10439704;28;20770;-80
2022/08/31 03:15:17;;;;;;;23.67;22.07;;;19.30;99.90;;;;;;10414838;28;20704;-80
2022/08/31 03:20:23;;;;;;;23.40;21.40;;;19.40;99.90;;;;;;10439927;28;20710;-80
2022/08/31 03:25:27;;;;;;;17.37;16.00;;;19.30;99.90;;;;;;10430990;28;20190;-83
2022/08/31 03:30:29;;;;;;;23.17;21.50;;;19.30;99.90;;;;;;10440569;28;20583;-81
2022/08/31 03:35:42;;;;;;;23.27;21.67;;;19.40;99.90;;;;;;10430334;28;20252;-81
2022/08/31 03:40:46;;;;;;;22.40;20.60;;;19.40;99.90;;;;;;10441018;28;20209;-81
2022/08/31 03:45:48;;;;;;;23.73;21.80;;;19.40;99.90;;;;;;10415524;28;20285;-81
2022/08/31 03:50:51;;;;;;;21.87;20.17;;;19.30;99.90;;;;;;10457187;28;20217;-81
2022/08/31 03:56:02;;;;;;;22.03;20.43;;;19.30;99.90;;;;;;10440340;28;20225;-81
2022/08/31 04:01:07;;;;;;;22.23;20.70;;;19.40;99.90;;;;;;10392240;28;20234;-81
2022/08/31 04:06:28;;;;;;;24.30;22.40;;;19.40;99.90;;;;;;10447182;28;20268;-81
2022/08/31 04:11:57;;;;;;;22.77;20.80;;;19.40;99.90;;;;;;10428963;28;20206;-81
2022/08/31 04:17:31;;;;;;;23.53;21.83;;;19.40;99.90;;;;;;10436467;28;20219;-81
2022/08/31 04:22:53;;;;;;;24.70;22.57;;;19.40;99.90;;;;;;10427403;28;20696;-81
2022/08/31 04:28:10;;;;;;;22.73;20.93;;;19.50;99.90;;;;;;10426383;28;20721;-81
2022/08/31 04:33:12;;;;;;;20.33;18.63;;;19.50;99.90;;;;;;10445709;28;20220;-81
2022/08/31 04:38:14;;;;;;;23.03;21.37;;;19.60;99.90;;;;;;10405695;28;20704;-81
2022/08/31 04:43:19;;;;;;;22.77;21.00;;;19.60;99.90;;;;;;10418479;28;20204;-81
2022/08/31 04:48:21;;;;;;;21.97;20.40;;;19.60;99.90;;;;;;10412439;28;20235;-81
2022/08/31 04:53:23;;;;;;;19.77;18.27;;;19.60;99.90;;;;;;10426724;28;20225;-81
2022/08/31 04:58:27;;;;;;;20.80;19.10;;;19.60;99.90;;;;;;10414795;28;20599;-81
2022/08/31 05:03:29;;;;;;;22.20;20.60;;;19.60;99.90;;;;;;10399336;28;20191;-81
2022/08/31 05:08:31;;;;;;;18.10;16.60;;;19.60;99.90;;;;;;10408128;28;20265;-81
2022/08/31 05:13:36;;;;;;;19.20;17.70;;;19.60;99.90;;;;;;10427140;28;20677;-80
2022/08/31 05:18:41;;;;;;;20.67;19.17;;;19.60;99.90;;;;;;10443005;28;20278;-81
2022/08/31 05:23:46;;;;;;;20.93;19.20;;;19.60;99.90;;;;;;10423937;28;20197;-81
2022/08/31 05:28:50;;;;;;;19.40;18.13;;;19.60;99.90;;;;;;10418429;28;20406;-81
2022/08/31 05:33:52;;;;;;;20.93;19.33;;;19.70;99.90;;;;;;10419752;28;20747;-81
2022/08/31 05:39:10;;;;;;;21.13;19.50;;;19.70;99.90;;;;;;10422074;28;20709;-82
2022/08/31 05:44:15;;;;;;;20.47;18.77;;;19.70;99.90;;;;;;10408977;28;20209;-80
2022/08/31 05:49:20;;;;;;;19.60;18.10;;;19.80;99.90;;;;;;10429866;28;20221;-81
2022/08/31 05:54:22;;;;;;;21.57;19.70;;;19.80;99.90;;;;;;10398571;28;20221;-81
2022/08/31 05:59:26;;;;;;;19.67;17.97;;;19.80;99.90;;;;;;10451700;28;20260;-80
2022/08/31 06:04:28;;;;;;;19.53;18.13;;;19.80;99.90;;;;;;10430958;28;20255;-81
2022/08/31 06:09:31;;;;;;;20.00;18.33;;;19.90;99.90;;;;;;10439233;28;20281;-81
2022/08/31 06:14:35;;;;;;;19.97;18.37;;;19.80;99.90;;;;;;10414094;28;20749;-81
2022/08/31 06:19:38;;;;;;;17.83;16.43;;;19.80;99.90;;;;;;10423059;28;20221;-81
2022/08/31 06:24:42;;;;;;;18.87;17.47;;;19.90;99.90;;;;;;10403095;28;20255;-81
2022/08/31 06:29:48;;;;;;;17.73;16.23;;;19.80;99.90;;;;;;10438915;28;20233;-81
2022/08/31 06:34:50;;;;;;;19.00;17.40;;;19.80;99.90;;;;;;10435076;28;20688;-81
2022/08/31 06:40:16;;;;;;;19.13;17.47;;;19.80;99.90;;;;;;10423188;28;20266;-81
2022/08/31 06:45:46;;;;;;;18.17;16.77;;;19.90;99.90;;;;;;10359225;28;20206;-81
2022/08/31 06:51:21;;;;;;;19.20;17.70;;;19.90;99.90;;;;;;10417125;28;20280;-81
2022/08/31 06:56:25;;;;;;;16.70;15.20;;;19.90;99.90;;;;;;10417127;28;20676;-81
2022/08/31 07:01:47;;;;;;;17.07;15.77;;;19.90;99.90;;;;;;10449705;28;20196;-81
2022/08/31 07:07:07;;;;;;;17.60;16.10;;;20.00;99.90;;;;;;10421629;28;20561;-81
2022/08/31 07:12:10;;;;;;;17.57;16.23;;;20.00;99.90;;;;;;10429710;28;20193;-81
2022/08/31 07:17:14;;;;;;;17.63;16.03;;;20.10;99.90;;;;;;10432693;28;20225;-81
2022/08/31 07:22:16;;;;;;;15.90;14.70;;;20.20;99.90;;;;;;10451076;28;20598;-81
2022/08/31 07:27:21;;;;;;;17.23;15.53;;;20.30;99.90;;;;;;10399850;28;20225;-81
2022/08/31 07:32:37;;;;;;;18.27;16.67;;;20.30;99.90;;;;;;10448324;28;20198;-81
2022/08/31 07:43:07;;;;;;;14.33;13.23;;;20.40;99.90;;;;;;10451184;28;20254;-81
2022/08/31 07:48:12;;;;;;;13.90;12.90;;;20.40;99.90;;;;;;10437927;28;20221;-81
2022/08/31 07:53:46;;;;;;;14.50;13.30;;;20.40;99.90;;;;;;10435975;28;20217;-81
2022/08/31 07:59:06;;;;;;;12.77;11.77;;;20.30;99.90;;;;;;10407539;28;20220;-81
2022/08/31 08:04:20;;;;;;;12.30;10.93;;;20.20;99.90;;;;;;10453415;28;20198;-81
2022/08/31 08:09:41;;;;;;;13.17;11.93;;;20.20;99.90;;;;;;10464114;22;20260;-81
2022/08/31 08:14:58;;;;;;;14.50;13.27;;;20.20;99.90;;;;;;10448524;28;20217;-82
2022/08/31 08:20:11;;;;;;;13.80;12.23;;;20.20;99.90;;;;;;10407239;28;20615;-81
2022/08/31 08:25:14;;;;;;;14.53;13.37;;;20.30;99.90;;;;;;10420070;28;20665;-80
2022/08/31 08:30:22;;;;;;;15.30;14.10;;;20.30;99.90;;;;;;10431426;28;20225;-80
2022/08/31 08:35:31;;;;;;;14.53;13.00;;;20.40;99.90;;;;;;10432310;28;20225;-83
2022/08/31 08:40:41;;;;;;;13.93;12.73;;;20.40;99.90;;;;;;10437924;28;20687;-83
2022/08/31 08:45:46;;;;;;;12.90;11.83;;;20.50;99.90;;;;;;10424150;28;20198;-84
2022/08/31 08:50:52;;;;;;;15.63;14.13;;;20.60;99.90;;;;;;10416407;28;20685;-83
2022/08/31 08:56:03;;;;;;;14.50;13.20;;;20.70;99.90;;;;;;10424825;28;20594;-83
2022/08/31 09:01:10;;;;;;;15.77;14.57;;;20.80;99.90;;;;;;10433718;28;20237;-83
2022/08/31 09:06:16;;;;;;;14.80;13.60;;;20.90;99.90;;;;;;10426608;28;20194;-81
2022/08/31 09:11:33;;;;;;;13.27;12.30;;;20.90;99.90;;;;;;10418797;28;20225;-83
2022/08/31 09:16:46;;;;;;;14.07;12.70;;;21.00;99.90;;;;;;10405736;28;20213;-81
2022/08/31 09:21:53;;;;;;;12.90;11.90;;;21.00;99.90;;;;;;10415247;28;20202;-80
2022/08/31 09:27:16;;;;;;;12.60;11.60;;;21.20;99.90;;;;;;10404595;28;20213;-80
2022/08/31 09:32:23;;;;;;;13.93;12.83;;;21.20;99.90;;;;;;10451302;28;20209;-79
2022/08/31 09:37:32;;;;;;;14.03;12.97;;;21.30;99.90;;;;;;10426780;28;20249;-79
2022/08/31 09:42:34;;;;;;;14.30;13.17;;;21.40;99.90;;;;;;10452192;28;20228;-79
2022/08/31 09:47:47;;;;;;;13.23;12.10;;;21.40;99.90;;;;;;10427591;28;20260;-79
2022/08/31 09:58:13;;;;;;;13.27;12.07;;;21.50;99.90;;;;;;10407851;28;20229;-80
2022/08/31 10:03:19;;;;;;;12.33;11.30;;;21.50;99.90;;;;;;10455721;28;20194;-81
2022/08/31 10:08:40;;;;;;;12.57;11.67;;;21.60;99.90;;;;;;10406451;28;20249;-82
2022/08/31 10:13:53;;;;;;;9.80;8.90;;;21.60;99.90;;;;;;10458461;28;20256;-80
2022/08/31 10:19:00;;;;;;;10.13;9.43;;;21.80;99.90;;;;;;10420927;28;20296;-80
2022/08/31 10:24:19;;;;;;;11.27;10.37;;;21.90;99.90;;;;;;10425076;28;20581;-79
2022/08/31 10:29:31;;;;;;;11.00;10.20;;;22.00;99.90;;;;;;10418049;28;20565;-81
2022/08/31 10:40:06;;;;;;;9.90;9.10;;;22.20;99.90;;;;;;10439518;28;20697;-81
2022/08/31 10:45:14;;;;;;;10.60;9.77;;;22.30;99.90;;;;;;10422884;28;20615;-80
2022/08/31 10:50:29;;;;;;;10.07;9.17;;;22.20;99.90;;;;;;10436711;28;20217;-84
2022/08/31 10:55:40;;;;;;;11.30;10.27;;;22.20;99.90;;;;;;10418441;28;20220;-80
2022/08/31 11:00:51;;;;;;;10.07;9.20;;;22.10;99.90;;;;;;10410879;28;20241;-82
2022/08/31 11:05:59;;;;;;;11.63;10.50;;;22.00;99.90;;;;;;10409258;28;20607;-81
2022/08/31 11:11:07;;;;;;;11.07;9.60;;;22.00;99.90;;;;;;10427554;28;20231;-82
2022/08/31 11:16:33;;;;;;;12.00;11.00;;;22.00;99.90;;;;;;10429563;28;20772;-81
2022/08/31 11:22:05;;;;;;;10.60;9.60;;;21.90;99.90;;;;;;10439183;28;20232;-81
2022/08/31 11:27:19;;;;;;;11.40;10.40;;;21.90;99.90;;;;;;10449784;28;20229;-81
2022/08/31 11:32:26;;;;;;;10.80;9.90;;;21.80;99.90;;;;;;10434547;28;20217;-81
2022/08/31 11:37:54;;;;;;;11.23;10.10;;;21.70;99.90;;;;;;10423200;28;20595;-81
2022/08/31 11:43:00;;;;;;;15.47;11.67;;;21.60;99.90;;;;;;10415070;28;20206;-81
2022/08/31 11:48:02;;;;;;;11.10;10.07;;;21.60;99.90;;;;;;10421136;28;20489;-81
2022/08/31 11:53:20;;;;;;;13.40;10.80;;;21.50;99.90;;;;;;10450726;28;20543;-81
2022/08/31 11:58:31;;;;;;;11.30;9.37;;;21.50;99.90;;;;;;10431024;28;20225;-81
2022/08/31 12:03:41;;;;;;;11.60;10.60;;;21.40;99.90;;;;;;10409754;28;20244;-80
2022/08/31 12:08:53;;;;;;;11.03;9.93;;;21.30;99.90;;;;;;10450569;28;20225;-81
2022/08/31 12:14:02;;;;;;;12.50;11.20;;;21.30;99.90;;;;;;10447858;28;20205;-81
2022/08/31 12:25:08;;;;;;;10.90;9.83;;;21.50;99.90;;;;;;10417449;28;20198;-81
2022/08/31 12:30:19;;;;;;;12.73;11.67;;;21.60;99.90;;;;;;10425245;28;20300;-81
2022/08/31 12:35:23;;;;;;;10.80;9.90;;;21.60;99.90;;;;;;10433122;28;20301;-81
2022/08/31 12:40:27;;;;;;;11.43;10.60;;;21.80;99.90;;;;;;10406075;28;20700;-81
2022/08/31 12:45:47;;;;;;;10.70;9.90;;;22.00;99.90;;;;;;10433926;28;20222;-81
2022/08/31 12:50:56;;;;;;;11.23;10.30;;;22.10;99.90;;;;;;10422703;28;20757;-81
2022/08/31 12:56:01;;;;;;;10.20;9.40;;;22.30;99.90;;;;;;10420158;28;20690;-81
2022/08/31 13:01:08;;;;;;;11.10;10.07;;;22.40;99.90;;;;;;10417326;28;20221;-81
2022/08/31 13:06:12;;;;;;;11.97;10.90;;;22.60;99.90;;;;;;10427449;28;20198;-80
2022/08/31 13:11:21;;;;;;;13.27;11.97;;;22.70;99.90;;;;;;10434689;28;20226;-81
2022/08/31 13:16:25;;;;;;;11.57;10.67;;;22.70;99.90;;;;;;10407000;28;20606;-80
2022/08/31 13:21:27;;;;;;;12.10;11.10;;;22.60;99.90;;;;;;10432829;28;20241;-81
2022/08/31 13:26:30;;;;;;;12.90;11.80;;;22.60;99.90;;;;;;10416781;28;20206;-81
2022/08/31 13:31:37;;;;;;;15.63;14.13;;;22.50;99.90;;;;;;10420307;28;20232;-80
2022/08/31 13:36:42;;;;;;;13.60;12.47;;;22.40;99.90;;;;;;10422631;28;20674;-80
2022/08/31 13:42:04;;;;;;;12.80;11.50;;;22.30;99.90;;;;;;10429885;28;20198;-80
2022/08/31 13:47:16;;;;;;;13.20;12.00;;;22.20;99.90;;;;;;10419417;28;20225;-80
2022/08/31 13:52:23;;;;;;;10.73;9.73;;;22.30;99.90;;;;;;10424895;28;20267;-80
2022/08/31 13:57:28;;;;;;;12.00;11.00;;;22.30;99.90;;;;;;10413447;28;20275;-81
2022/08/31 14:02:34;;;;;;;11.03;10.20;;;22.20;99.90;;;;;;10425781;28;20213;-81
2022/08/31 14:07:56;;;;;;;11.80;10.90;;;22.20;99.90;;;;;;10464129;23;20237;-81
2022/08/31 14:13:01;;;;;;;11.57;10.70;;;22.20;99.90;;;;;;10416323;28;20231;-81
2022/08/31 14:18:17;;;;;;;12.40;11.30;;;22.30;99.90;;;;;;10412837;28;20230;-80
2022/08/31 14:23:32;;;;;;;12.83;11.80;;;22.30;99.90;;;;;;10380256;28;20197;-81
2022/08/31 14:28:39;;;;;;;11.30;10.50;;;22.30;99.90;;;;;;10413769;28;20229;-80
2022/08/31 14:33:43;;;;;;;11.80;11.00;;;22.30;99.90;;;;;;10414997;28;20272;-80
2022/08/31 14:38:47;;;;;;;11.30;10.50;;;22.30;99.90;;;;;;10410139;28;20681;-81
2022/08/31 14:43:49;;;;;;;12.57;11.50;;;22.30;99.90;;;;;;10417550;28;20186;-80
2022/08/31 14:48:52;;;;;;;11.70;10.70;;;22.30;99.90;;;;;;10417090;28;20667;-81
2022/08/31 14:53:56;;;;;;;10.90;10.20;;;22.40;99.90;;;;;;10420283;28;20221;-80
2022/08/31 14:59:04;;;;;;;10.07;9.23;;;22.40;99.90;;;;;;10419064;28;20221;-80
2022/08/31 15:04:08;;;;;;;11.20;10.20;;;22.60;99.90;;;;;;10422702;28;20201;-81
2022/08/31 15:09:10;;;;;;;9.10;8.40;;;22.80;99.90;;;;;;10398705;28;20705;-81
2022/08/31 15:14:12;;;;;;;10.30;9.50;;;23.20;99.90;;;;;;10418697;28;20198;-81
2022/08/31 15:19:16;;;;;;;10.27;9.50;;;23.40;99.90;;;;;;10423898;28;20217;-81
2022/08/31 15:24:22;;;;;;;9.10;8.40;;;23.50;99.90;;;;;;10426021;28;20232;-80
2022/08/31 15:29:24;;;;;;;7.33;6.77;;;23.40;99.90;;;;;;10407252;28;20274;-81
2022/08/31 15:34:30;;;;;;;6.33;5.93;;;23.30;99.90;;;;;;10406991;28;20256;-81
2022/08/31 15:39:34;;;;;;;8.23;7.60;;;23.00;99.90;;;;;;10384800;28;20214;-80
2022/08/31 15:44:37;;;;;;;8.37;7.53;;;22.80;99.90;;;;;;10425992;28;20186;-81
2022/08/31 15:49:42;;;;;;;7.33;5.83;;;22.50;99.90;;;;;;10402813;28;20289;-80
2022/08/31 15:54:45;;;;;;;7.97;7.37;;;22.20;99.90;;;;;;10406518;28;20206;-81
2022/08/31 15:59:47;;;;;;;8.40;7.77;;;22.00;99.90;;;;;;10454568;28;20216;-81
2022/08/31 16:04:53;;;;;;;8.80;8.20;;;21.90;99.90;;;;;;10444587;28;20300;-81
2022/08/31 16:09:55;;;;;;;9.00;8.40;;;21.80;99.90;;;;;;10456554;28;20282;-80
2022/08/31 16:14:57;;;;;;;9.07;8.33;;;21.60;99.90;;;;;;10408805;28;20248;-81
2022/08/31 16:20:01;;;;;;;9.23;8.53;;;21.50;99.90;;;;;;10449943;28;20225;-80
2022/08/31 16:25:07;;;;;;;13.03;11.83;;;21.50;99.90;;;;;;10430958;28;20208;-81
2022/08/31 16:30:11;;;;;;;10.27;9.47;;;21.40;99.90;;;;;;10428798;28;20217;-81
2022/08/31 16:35:14;;;;;;;9.20;8.60;;;21.30;99.90;;;;;;10461572;28;20216;-81
2022/08/31 16:40:17;;;;;;;9.80;8.90;;;21.30;99.90;;;;;;10419184;28;20214;-81
2022/08/31 16:45:19;;;;;;;10.30;9.10;;;21.30;99.90;;;;;;10445257;28;20190;-80
2022/08/31 16:50:23;;;;;;;9.90;9.17;;;21.20;99.90;;;;;;10423281;28;20309;-81
2022/08/31 16:55:25;;;;;;;12.63;11.70;;;21.20;99.90;;;;;;10420661;28;20209;-81
2022/08/31 17:00:29;;;;;;;10.67;9.87;;;21.20;99.90;;;;;;10448060;28;20590;-80
2022/08/31 17:05:33;;;;;;;12.00;10.90;;;21.20;99.90;;;;;;10451449;28;20553;-81
2022/08/31 17:10:35;;;;;;;8.03;7.33;;;21.30;99.90;;;;;;10443552;28;20734;-81
2022/08/31 17:15:37;;;;;;;8.30;7.80;;;21.30;99.90;;;;;;10452100;28;20739;-81
2022/08/31 17:20:41;;;;;;;9.40;8.70;;;21.30;99.90;;;;;;10445054;28;20713;-81
2022/08/31 17:25:44;;;;;;;9.20;8.43;;;21.40;99.90;;;;;;10408563;28;20185;-81
2022/08/31 17:30:46;;;;;;;10.80;9.90;;;21.40;99.90;;;;;;10435838;28;20281;-81
2022/08/31 17:35:50;;;;;;;9.20;8.50;;;21.30;99.90;;;;;;10414687;28;20308;-80
2022/08/31 17:40:54;;;;;;;9.70;9.00;;;21.30;99.90;;;;;;10442802;28;20213;-81
2022/08/31 17:45:56;;;;;;;8.63;8.03;;;21.30;99.90;;;;;;10432456;28;20201;-81
2022/08/31 17:51:02;;;;;;;8.40;7.70;;;21.20;99.90;;;;;;10420539;28;20222;-80
2022/08/31 17:56:06;;;;;;;8.70;8.00;;;21.10;99.90;;;;;;10429029;28;20596;-80
2022/08/31 18:01:11;;;;;;;8.30;7.80;;;21.00;99.90;;;;;;10450566;28;20224;-81
2022/08/31 18:06:17;;;;;;;7.57;7.07;;;20.80;99.90;;;;;;10444433;28;20689;-80
2022/08/31 18:11:19;;;;;;;8.53;7.87;;;20.70;99.90;;;;;;10452973;28;20240;-81
2022/08/31 18:16:22;;;;;;;8.93;8.33;;;20.50;99.90;;;;;;10428209;28;20217;-81
2022/08/31 18:21:25;;;;;;;8.93;8.33;;;20.40;99.90;;;;;;10441588;28;20730;-81
2022/08/31 18:26:30;;;;;;;9.43;8.80;;;20.40;99.90;;;;;;10445208;28;20197;-81
2022/08/31 18:31:33;;;;;;;8.90;8.30;;;20.20;99.90;;;;;;10452497;28;20221;-81
2022/08/31 18:36:38;;;;;;;8.83;8.20;;;20.20;99.90;;;;;;10428719;28;20893;-81
2022/08/31 18:47:01;;;;;;;9.73;8.93;;;20.00;99.90;;;;;;10448534;28;20188;-81
2022/08/31 18:52:08;;;;;;;10.40;9.70;;;19.90;99.90;;;;;;10436009;28;20244;-81
2022/08/31 18:57:10;;;;;;;10.67;9.87;;;19.80;99.90;;;;;;10447383;28;20247;-81
2022/08/31 19:02:16;;;;;;;9.83;9.23;;;19.80;99.90;;;;;;10444742;28;20197;-81
2022/08/31 19:07:21;;;;;;;10.40;9.53;;;19.70;99.90;;;;;;10438598;28;20288;-81
2022/08/31 19:12:25;;;;;;;11.50;10.60;;;19.70;99.90;;;;;;10442950;28;20315;-81
2022/08/31 19:17:27;;;;;;;11.63;10.73;;;19.60;99.90;;;;;;10423742;28;20228;-81
2022/08/31 19:22:30;;;;;;;10.40;9.57;;;19.60;99.90;;;;;;10433205;28;20205;-81
2022/08/31 19:27:34;;;;;;;12.00;11.10;;;19.60;99.90;;;;;;10444983;28;20758;-81
2022/08/31 19:32:39;;;;;;;11.50;10.60;;;19.60;99.90;;;;;;10442565;28;20217;-81
2022/08/31 19:37:43;;;;;;;13.73;12.73;;;19.60;99.90;;;;;;10438080;28;20227;-81
2022/08/31 19:42:45;;;;;;;13.10;12.20;;;19.50;99.90;;;;;;10459934;28;20204;-81
2022/08/31 19:47:49;;;;;;;14.97;13.43;;;19.50;99.90;;;;;;10426623;28;20241;-81
2022/08/31 19:52:52;;;;;;;14.90;13.70;;;19.50;99.90;;;;;;10451387;28;20228;-81
2022/08/31 19:57:55;;;;;;;15.10;14.00;;;19.50;99.90;;;;;;10446283;28;20742;-80
2022/08/31 20:02:58;;;;;;;14.10;13.00;;;19.50;99.90;;;;;;10443201;28;20208;-81
2022/08/31 20:08:02;;;;;;;14.67;13.47;;;19.50;99.90;;;;;;10439543;22;20279;-81
2022/08/31 20:13:04;;;;;;;15.83;14.70;;;19.50;99.90;;;;;;10484215;28;20225;-81
2022/08/31 20:18:10;;;;;;;14.90;13.80;;;19.50;99.90;;;;;;10478527;28;20289;-82
2022/08/31 20:23:15;;;;;;;16.77;15.40;;;19.50;99.90;;;;;;10488098;28;20247;-79
2022/08/31 20:28:20;;;;;;;16.20;14.93;;;19.50;99.90;;;;;;10470164;28;20588;-83
2022/08/31 20:33:24;;;;;;;18.33;16.30;;;19.50;99.90;;;;;;10481120;28;20264;-81
2022/08/31 20:38:29;;;;;;;17.67;16.27;;;19.50;99.90;;;;;;10482181;28;20220;-81
2022/08/31 20:43:34;;;;;;;17.93;16.53;;;19.40;99.90;;;;;;10475339;28;20235;-81
2022/08/31 20:53:57;;;;;;;17.63;16.20;;;19.40;99.90;;;;;;10462262;28;20200;-82
2022/08/31 20:59:00;;;;;;;17.23;15.87;;;19.30;99.90;;;;;;10442284;28;20270;-83
2022/08/31 21:04:03;;;;;;;18.17;16.67;;;19.30;99.90;;;;;;10461621;28;20239;-80
2022/08/31 21:09:08;;;;;;;19.47;17.67;;;19.40;99.90;;;;;;10461126;28;20213;-79
2022/08/31 21:14:12;;;;;;;18.43;16.97;;;19.30;99.90;;;;;;10468702;28;20280;-80
2022/08/31 21:19:16;;;;;;;19.17;17.43;;;19.30;99.90;;;;;;10459316;28;20225;-80
2022/08/31 21:24:20;;;;;;;18.87;17.17;;;19.30;99.90;;;;;;10463239;28;20197;-80
2022/08/31 21:29:22;;;;;;;19.87;18.07;;;19.30;99.90;;;;;;10462026;28;20508;-80
2022/08/31 21:34:25;;;;;;;20.40;18.80;;;19.30;99.90;;;;;;10460086;28;20220;-82
2022/08/31 21:39:31;;;;;;;18.80;17.20;;;19.20;99.90;;;;;;10478189;28;20721;-81
2022/08/31 21:44:34;;;;;;;20.97;19.27;;;19.20;99.90;;;;;;10462191;28;20213;-81
2022/08/31 21:49:36;;;;;;;20.87;18.97;;;19.20;99.90;;;;;;10461287;28;20248;-79
2022/08/31 21:54:43;;;;;;;21.30;19.50;;;19.20;99.90;;;;;;10461665;28;20223;-81
2022/08/31 21:59:45;;;;;;;20.70;18.77;;;19.20;99.90;;;;;;10459301;28;20225;-79
2022/08/31 22:04:47;;;;;;;21.67;19.57;;;19.20;99.90;;;;;;10459780;28;20211;-80
2022/08/31 22:09:50;;;;;;;21.73;19.90;;;19.10;99.90;;;;;;10455916;28;20209;-79
2022/08/31 22:14:52;;;;;;;22.30;20.40;;;19.10;99.90;;;;;;10457375;28;20235;-80
2022/08/31 22:19:55;;;;;;;25.27;23.00;;;19.00;99.90;;;;;;10456932;28;20308;-81
2022/08/31 22:24:59;;;;;;;25.60;23.17;;;19.00;99.90;;;;;;10458543;28;20237;-81
2022/08/31 22:30:03;;;;;;;25.30;23.03;;;18.90;99.90;;;;;;10457437;28;20770;-79
2022/08/31 22:35:06;;;;;;;28.50;26.00;;;18.90;99.90;;;;;;10457050;28;20212;-79
2022/08/31 22:40:19;;;;;;;25.17;23.17;;;18.90;99.90;;;;;;10457268;28;20304;-82
2022/08/31 22:45:23;;;;;;;28.50;25.87;;;18.90;99.90;;;;;;10456200;28;20193;-79
2022/08/31 22:50:25;;;;;;;26.00;23.80;;;18.90;99.90;;;;;;10456728;28;20260;-82
2022/08/31 22:55:29;;;;;;;27.80;25.40;;;18.90;99.90;;;;;;10457656;28;20201;-80
2022/08/31 23:00:32;;;;;;;27.20;24.70;;;18.90;99.90;;;;;;10456657;28;20221;-82
2022/08/31 23:05:35;;;;;;;25.33;22.83;;;18.80;99.90;;;;;;10455828;28;20197;-81
2022/08/31 23:10:39;;;;;;;32.53;29.73;;;18.80;99.90;;;;;;10440974;28;20302;-81
2022/08/31 23:15:42;;;;;;;25.83;23.53;;;18.80;99.90;;;;;;10459886;28;20193;-79
2022/08/31 23:20:44;;;;;;;25.93;23.73;;;18.80;99.90;;;;;;10461183;28;20282;-81
2022/08/31 23:25:49;;;;;;;23.13;21.17;;;18.80;99.90;;;;;;10458095;28;20276;-82
2022/08/31 23:30:51;;;;;;;22.63;20.73;;;18.70;99.90;;;;;;10456402;28;20216;-79
2022/08/31 23:35:54;;;;;;;22.13;20.17;;;18.70;99.90;;;;;;10456195;28;20193;-80
2022/08/31 23:40:59;;;;;;;23.53;21.43;;;18.70;99.90;;;;;;10455842;28;20260;-81
2022/08/31 23:46:02;;;;;;;23.00;21.00;;;18.70;99.90;;;;;;10455792;28;20512;-81
2022/08/31 23:51:06;;;;;;;22.87;20.93;;;18.70;99.90;;;;;;10456432;28;20563;-79
2022/08/31 23:56:10;;;;;;;22.40;20.40;;;18.70;99.90;;;;;;10455738;28;20668;-82
